Time;durP1;ratioP1;P1;durP2;ratioP2;P2;SDS_P1;SDS_P2;PMS_P1;PMS_P2;Temp;Humidity;BMP_temperature;BMP_pressure;BME280_temperature;BME280_humidity;BME280_pressure;Samples;Min_cycle;Max_cycle;Signal;HPM_P1;HPM_P2
2022/11/22 00:01:48;;;;;;;412.58;371.42;;;;;;;-0.47;100.00;97021.50;7385908;19;20014;-52
2022/11/22 00:04:22;;;;;;;526.47;467.15;;;;;;;-0.51;100.00;97024.25;7384402;19;20014;-49
2022/11/22 00:06:55;;;;;;;430.15;388.33;;;;;;;-0.35;100.00;97015.88;7385733;19;20014;-51
2022/11/22 00:09:29;;;;;;;617.00;502.38;;;;;;;-0.45;100.00;97014.56;7383603;19;20477;-49
2022/11/22 00:12:06;;;;;;;683.85;544.75;;;;;;;-0.46;100.00;97012.84;7375907;19;20006;-52
2022/11/22 00:14:42;;;;;;;688.15;544.47;;;;;;;-0.43;100.00;97007.56;7383882;19;20360;-54
2022/11/22 00:17:16;;;;;;;702.97;551.00;;;;;;;-0.36;100.00;97003.88;7384268;19;20007;-56
2022/11/22 00:19:49;;;;;;;695.90;550.50;;;;;;;-0.42;100.00;97011.00;7385288;19;20034;-55
2022/11/22 00:22:23;;;;;;;697.05;546.30;;;;;;;-0.47;100.00;97010.31;7385328;19;20010;-51
2022/11/22 00:24:58;;;;;;;673.30;538.80;;;;;;;-0.45;100.00;97014.56;7378687;19;20375;-54
2022/11/22 00:27:35;;;;;;;650.97;526.53;;;;;;;-0.40;100.00;97017.81;7385290;19;20026;-49
2022/11/22 00:30:12;;;;;;;669.17;528.08;;;;;;;-0.42;100.00;97022.16;7384097;19;20021;-55
2022/11/22 00:32:46;;;;;;;574.10;488.15;;;;;;;-0.46;100.00;97025.75;7390715;19;20014;-53
2022/11/22 00:35:20;;;;;;;477.88;426.73;;;;;;;-0.50;100.00;97026.75;7389385;19;20474;-51
2022/11/22 00:37:54;;;;;;;458.98;410.02;;;;;;;-0.53;100.00;97026.88;7390026;19;20022;-51
2022/11/22 00:40:30;;;;;;;423.70;382.63;;;;;;;-0.50;100.00;97033.69;7391855;19;20015;-56
2022/11/22 00:43:04;;;;;;;458.80;415.25;;;;;;;-0.53;100.00;97032.03;7385157;19;20515;-49
2022/11/22 00:45:42;;;;;;;398.95;360.27;;;;;;;-0.52;100.00;97036.31;7392747;19;20015;-49
2022/11/22 00:48:16;;;;;;;402.87;363.60;;;;;;;-0.47;100.00;97031.81;7387741;19;20014;-59
2022/11/22 00:50:49;;;;;;;400.85;361.17;;;;;;;-0.49;100.00;97037.94;7391551;19;20774;-62
2022/11/22 00:53:23;;;;;;;396.08;357.25;;;;;;;-0.52;100.00;97038.91;7389784;19;20018;-52
2022/11/22 00:55:57;;;;;;;439.67;396.73;;;;;;;-0.51;100.00;97042.31;7383623;19;20010;-49
2022/11/22 00:58:36;;;;;;;431.80;390.15;;;;;;;-0.46;100.00;97043.00;7387480;19;20010;-51
2022/11/22 01:01:11;;;;;;;;;;;;;;;-0.52;100.00;97050.97;7388341;19;20010;-55
2022/11/22 01:03:45;;;;;;;417.20;376.98;;;;;;;-0.53;100.00;97041.53;7391508;19;19952;-53
2022/11/22 01:06:18;;;;;;;395.70;356.45;;;;;;;-0.54;100.00;97040.69;7391232;19;20010;-51
2022/11/22 01:08:52;;;;;;;405.02;363.35;;;;;;;-0.51;100.00;97050.91;7387514;19;20466;-50
2022/11/22 01:11:31;;;;;;;394.25;354.33;;;;;;;-0.62;100.00;97053.03;7389489;19;20011;-49
2022/11/22 01:14:06;;;;;;;410.38;368.90;;;;;;;-0.50;100.00;97056.94;7385869;19;20012;-52
2022/11/22 01:16:45;;;;;;;411.77;371.42;;;;;;;-0.40;100.00;97055.69;7390748;19;20010;-51
2022/11/22 01:19:21;;;;;;;;;;;;;;;-0.45;100.00;97052.44;7384953;19;20046;-50
2022/11/22 01:21:57;;;;;;;420.33;378.50;;;;;;;-0.41;100.00;97049.69;7391190;19;19931;-50
2022/11/22 01:24:31;;;;;;;418.05;376.42;;;;;;;-0.46;100.00;97061.91;7390495;19;20462;-51
2022/11/22 01:27:04;;;;;;;433.77;390.52;;;;;;;-0.47;100.00;97067.13;7389482;19;21058;-49
2022/11/22 01:29:38;;;;;;;418.25;375.50;;;;;;;-0.45;100.00;97058.44;7389570;19;20007;-53
2022/11/22 01:32:14;;;;;;;423.27;380.58;;;;;;;-0.34;100.00;97056.34;7384990;19;20015;-55
2022/11/22 01:34:48;;;;;;;423.98;382.05;;;;;;;-0.35;100.00;97066.72;7388501;19;20007;-49
2022/11/22 01:37:22;;;;;;;422.30;380.35;;;;;;;-0.36;100.00;97057.25;7389188;19;20474;-51
2022/11/22 01:39:55;;;;;;;430.38;386.92;;;;;;;-0.37;100.00;97056.44;7388702;19;20470;-49
2022/11/22 01:42:48;;;;;;;424.73;381.80;;;;;;;-0.32;100.00;97057.09;7389764;19;20006;-49
2022/11/22 01:45:48;;;;;;;499.83;445.70;;;;;;;-0.33;100.00;97058.00;7390079;19;20010;-49
2022/11/22 01:48:42;;;;;;;518.30;463.23;;;;;;;-0.35;100.00;97061.56;7378514;19;20017;-51
2022/11/22 01:51:24;;;;;;;555.03;490.20;;;;;;;-0.32;100.00;97058.84;7386422;19;20509;-50
2022/11/22 01:54:01;;;;;;;465.70;417.10;;;;;;;-0.26;100.00;97046.56;7390378;19;20017;-53
2022/11/22 01:56:35;;;;;;;434.65;391.67;;;;;;;-0.30;100.00;97046.72;7386671;19;20458;-50
2022/11/22 01:59:17;;;;;;;646.45;529.60;;;;;;;-0.29;100.00;97041.50;7384664;19;20527;-51
2022/11/22 02:01:50;;;;;;;582.42;498.35;;;;;;;-0.26;100.00;97037.97;7388845;19;20018;-51
2022/11/22 02:04:32;;;;;;;534.38;466.02;;;;;;;-0.22;100.00;97040.38;7384234;19;20387;-53
2022/11/22 02:07:11;;;;;;;430.02;387.80;;;;;;;-0.24;100.00;97033.59;7390565;19;20010;-51
2022/11/22 02:09:46;;;;;;;440.58;396.10;;;;;;;-0.28;100.00;97030.25;7380534;19;20014;-49
2022/11/22 02:12:22;;;;;;;546.97;472.77;;;;;;;-0.33;100.00;97031.31;7389350;19;20014;-51
2022/11/22 02:14:56;;;;;;;468.38;418.48;;;;;;;-0.30;100.00;97029.50;7382264;19;20504;-63
2022/11/22 02:17:31;;;;;;;444.60;397.95;;;;;;;-0.26;100.00;97025.03;7388802;19;20441;-50
2022/11/22 02:20:07;;;;;;;432.08;385.60;;;;;;;-0.24;100.00;97026.66;7389324;19;20010;-48
2022/11/22 02:22:49;;;;;;;438.40;394.38;;;;;;;-0.29;100.00;97025.16;7388849;19;20077;-50
2022/11/22 02:25:31;;;;;;;406.95;366.13;;;;;;;-0.26;100.00;97025.91;7388451;19;20014;-54
2022/11/22 02:28:07;;;;;;;423.73;381.35;;;;;;;-0.19;100.00;97017.03;7385742;19;20017;-50
2022/11/22 02:30:42;;;;;;;418.73;376.50;;;;;;;-0.34;100.00;97017.59;7388566;19;20078;-53
2022/11/22 02:33:18;;;;;;;433.83;390.10;;;;;;;-0.27;100.00;97019.03;7384292;19;20082;-51
2022/11/22 02:35:52;;;;;;;418.95;377.08;;;;;;;-0.27;100.00;97013.84;7386413;19;20029;-49
2022/11/22 02:38:31;;;;;;;426.45;383.73;;;;;;;-0.32;100.00;97009.75;7382250;19;20010;-57
2022/11/22 02:41:08;;;;;;;420.80;378.85;;;;;;;-0.26;100.00;97006.97;7387140;19;20014;-50
2022/11/22 02:43:49;;;;;;;425.70;383.73;;;;;;;-0.25;100.00;97001.75;7386028;19;20021;-66
2022/11/22 02:46:23;;;;;;;421.13;379.08;;;;;;;-0.32;100.00;97008.03;7387207;19;20010;-50
2022/11/22 02:48:57;;;;;;;423.13;380.92;;;;;;;-0.27;100.00;96997.53;7385019;19;20013;-51
2022/11/22 02:51:31;;;;;;;437.08;392.73;;;;;;;-0.22;100.00;97000.78;7381311;19;21068;-51
2022/11/22 02:54:04;;;;;;;424.20;381.90;;;;;;;-0.22;100.00;97004.22;7388903;19;20010;-50
2022/11/22 02:56:37;;;;;;;422.33;379.80;;;;;;;-0.24;100.00;97003.41;7381638;19;20029;-66
2022/11/22 02:59:16;;;;;;;414.67;373.45;;;;;;;-0.23;100.00;97005.13;7387342;19;20423;-49
2022/11/22 03:01:50;;;;;;;;;;;;;;;-0.09;100.00;97008.03;7388328;19;20011;-51
2022/11/22 03:04:27;;;;;;;426.75;384.25;;;;;;;-0.28;100.00;97006.19;7386922;19;20213;-49
2022/11/22 03:07:03;;;;;;;422.58;379.95;;;;;;;-0.23;100.00;97009.44;7384561;19;20010;-50
2022/11/22 03:09:37;;;;;;;429.38;385.95;;;;;;;-0.22;100.00;96998.22;7382243;19;20023;-49
2022/11/22 03:12:10;;;;;;;410.63;370.17;;;;;;;-0.18;100.00;97005.78;7387069;19;20014;-52
2022/11/22 03:14:47;;;;;;;412.85;371.75;;;;;;;-0.23;100.00;97005.13;7383462;19;20366;-58
2022/11/22 03:17:22;;;;;;;419.80;378.42;;;;;;;-0.22;100.00;97008.53;7383640;19;20011;-50
2022/11/22 03:19:56;;;;;;;413.10;371.60;;;;;;;-0.18;100.00;97004.94;7383239;19;20339;-49
2022/11/22 03:22:34;;;;;;;425.17;381.80;;;;;;;-0.23;100.00;97009.44;7381198;19;20053;-49
2022/11/22 03:25:12;;;;;;;419.42;376.73;;;;;;;-0.24;100.00;97016.34;7385949;19;20015;-50
2022/11/22 03:27:45;;;;;;;439.50;395.20;;;;;;;-0.20;100.00;97012.75;7381561;19;20017;-52
2022/11/22 03:30:27;;;;;;;425.80;382.77;;;;;;;-0.25;100.00;97009.50;7384988;19;20340;-52
2022/11/22 03:33:01;;;;;;;434.38;390.05;;;;;;;-0.22;100.00;97011.97;7381342;19;20027;-56
2022/11/22 03:35:35;;;;;;;416.63;374.35;;;;;;;-0.18;100.00;96994.59;7383353;19;20021;-50
2022/11/22 03:38:09;;;;;;;418.13;375.70;;;;;;;-0.17;100.00;97002.31;7386302;19;20015;-61
2022/11/22 03:40:45;;;;;;;417.02;374.02;;;;;;;-0.13;100.00;96997.88;7379978;19;20011;-52
2022/11/22 03:43:22;;;;;;;420.85;378.73;;;;;;;-0.16;100.00;97001.41;7384602;19;20466;-52
2022/11/22 03:45:59;;;;;;;440.90;396.40;;;;;;;-0.16;100.00;96987.66;7378885;19;20031;-49
2022/11/22 03:48:39;;;;;;;419.13;377.15;;;;;;;-0.19;100.00;96985.19;7385215;19;20014;-52
2022/11/22 03:51:13;;;;;;;438.10;393.70;;;;;;;-0.14;100.00;96991.00;7380291;19;20365;-64
2022/11/22 03:53:47;;;;;;;428.65;385.67;;;;;;;-0.09;100.00;96986.53;7384161;19;20018;-52
2022/11/22 03:56:21;;;;;;;406.38;364.73;;;;;;;-0.19;100.00;96986.03;7384108;19;20026;-50
2022/11/22 03:58:55;;;;;;;417.75;375.05;;;;;;;-0.25;100.00;96975.91;7384974;19;19998;-53
2022/11/22 04:01:31;;;;;;;416.38;374.33;;;;;;;-0.24;100.00;96987.94;7386191;19;20015;-54
2022/11/22 04:04:04;;;;;;;416.83;374.23;;;;;;;-0.26;100.00;96997.50;7385809;19;20030;-53
2022/11/22 04:06:38;;;;;;;426.92;385.67;;;;;;;-0.30;100.00;96990.75;7392916;19;20006;-54
2022/11/22 04:09:13;;;;;;;656.92;551.33;;;;;;;-0.32;100.00;96989.09;7393015;19;20033;-49
2022/11/22 04:11:46;;;;;;;704.53;575.33;;;;;;;-0.43;100.00;96983.47;7392691;19;20007;-52
2022/11/22 04:17:08;;;;;;;713.50;583.20;;;;;;;-0.30;100.00;96985.59;7386683;19;20025;-49
2022/11/22 04:21:32;;;;;;;702.35;565.80;;;;;;;-0.24;100.00;96976.78;7389903;19;20010;-52
2022/11/22 04:22:33;;;;;;;686.80;541.25;;;;;;;-0.37;100.00;96978.97;7392243;19;20015;-50
2022/11/22 04:25:18;;;;;;;682.90;544.33;;;;;;;-0.42;100.00;96983.44;7392363;19;20018;-54
2022/11/22 04:27:52;;;;;;;653.50;516.42;;;;;;;-0.39;100.00;96985.91;7392850;19;20025;-55
2022/11/22 04:32:44;;;;;;;670.90;538.70;;;;;;;-0.43;100.00;96999.84;7391599;19;20014;-53
2022/11/22 04:33:24;;;;;;;683.70;538.58;;;;;;;-0.48;100.00;96988.84;7390574;19;20015;-58
2022/11/22 04:35:58;;;;;;;493.73;440.50;;;;;;;-0.52;100.00;96997.59;7390186;19;20011;-66
2022/11/22 04:38:31;;;;;;;442.75;395.42;;;;;;;-0.61;100.00;97005.66;7390385;19;20021;-53
2022/11/22 04:41:05;;;;;;;444.55;396.73;;;;;;;-0.53;100.00;97001.06;7391884;19;20011;-52
2022/11/22 04:46:25;;;;;;;448.80;403.25;;;;;;;-0.47;100.00;96995.69;7389928;19;20014;-52
2022/11/22 04:49:01;;;;;;;461.50;414.27;;;;;;;-0.53;100.00;96990.72;7386715;19;20010;-51
2022/11/22 04:54:20;;;;;;;443.10;396.90;;;;;;;-0.58;100.00;96996.94;7385052;19;20018;-50
2022/11/22 04:56:58;;;;;;;442.23;397.05;;;;;;;-0.41;100.00;96995.47;7389487;19;20034;-54
2022/11/22 04:59:32;;;;;;;436.40;393.77;;;;;;;-0.59;100.00;96995.28;7388645;19;20030;-53
2022/11/22 05:02:05;;;;;;;456.20;411.52;;;;;;;-0.55;100.00;97002.88;7391618;19;20267;-50
2022/11/22 05:04:41;;;;;;;449.77;405.55;;;;;;;-0.65;100.00;97000.69;7391284;19;20006;-62
2022/11/22 05:07:16;;;;;;;463.15;416.65;;;;;;;-0.75;100.00;97000.13;7386205;19;20017;-53
2022/11/22 05:09:50;;;;;;;441.88;398.55;;;;;;;-0.71;100.00;97006.03;7390634;19;20493;-55
2022/11/22 05:12:23;;;;;;;445.48;401.45;;;;;;;-0.83;100.00;97007.28;7387885;19;20106;-66
2022/11/22 05:14:57;;;;;;;421.98;379.02;;;;;;;-0.89;100.00;97012.69;7389171;19;20018;-54
2022/11/22 05:17:30;;;;;;;424.95;381.90;;;;;;;-0.82;100.00;97016.75;7389022;19;20014;-54
2022/11/22 05:20:10;;;;;;;437.15;393.40;;;;;;;-0.89;100.00;97012.69;7384822;19;20025;-52
2022/11/22 05:25:29;;;;;;;455.27;410.15;;;;;;;-0.93;100.00;97011.09;7389566;19;20127;-50
2022/11/22 05:28:03;;;;;;;473.77;427.65;;;;;;;-0.95;100.00;97006.88;7386336;19;20007;-52
2022/11/22 05:30:44;;;;;;;481.58;434.45;;;;;;;-1.01;100.00;97004.53;7383606;19;20007;-57
2022/11/22 05:33:18;;;;;;;465.83;419.95;;;;;;;-1.03;100.00;97004.56;7389382;19;20347;-56
2022/11/22 05:35:54;;;;;;;468.55;422.52;;;;;;;-0.94;100.00;97016.31;7387162;19;20014;-53
2022/11/22 05:38:30;;;;;;;473.35;426.90;;;;;;;-0.80;100.00;97007.19;7390431;19;20021;-53
2022/11/22 05:41:04;;;;;;;470.15;424.35;;;;;;;-0.93;100.00;97000.78;7390241;19;20037;-53
2022/11/22 05:43:39;;;;;;;490.83;443.27;;;;;;;-1.00;100.00;97009.63;7385090;19;20021;-57
2022/11/22 05:46:13;;;;;;;414.05;371.98;;;;;;;-1.09;100.00;96999.59;7388127;19;20010;-55
2022/11/22 05:48:49;;;;;;;437.95;390.55;;;;;;;-1.14;100.00;97006.66;7384668;19;20010;-54
2022/11/22 05:51:28;;;;;;;450.00;405.80;;;;;;;-1.08;100.00;97008.19;7389218;19;20010;-54
2022/11/22 05:54:02;;;;;;;523.75;469.00;;;;;;;-1.29;100.00;97006.31;7387601;19;20011;-51
2022/11/22 05:56:36;;;;;;;555.95;494.77;;;;;;;-1.14;100.00;96998.06;7386218;19;20006;-55
2022/11/22 05:59:09;;;;;;;606.03;519.60;;;;;;;-1.05;100.00;97006.34;7389234;19;20098;-55
2022/11/22 06:01:43;;;;;;;645.33;532.33;;;;;;;-1.08;100.00;97003.88;7380992;19;20025;-61
2022/11/22 06:04:17;;;;;;;508.40;453.20;;;;;;;-1.03;100.00;96998.56;7387491;19;20011;-53
2022/11/22 06:06:55;;;;;;;398.50;356.73;;;;;;;-1.06;100.00;96999.50;7386316;19;20015;-56
2022/11/22 06:09:29;;;;;;;;;;;;;;;-0.95;100.00;97002.56;7386478;19;20501;-54
2022/11/22 06:12:02;;;;;;;422.88;379.33;;;;;;;-0.96;100.00;97006.06;7384050;19;19925;-50
2022/11/22 06:14:36;;;;;;;635.58;519.60;;;;;;;-1.05;100.00;97006.34;7379545;19;20315;-56
2022/11/22 06:17:17;;;;;;;699.25;583.00;;;;;;;-0.88;100.00;97003.19;7383849;19;20025;-50
2022/11/22 06:19:51;;;;;;;717.15;586.63;;;;;;;-0.92;100.00;97011.94;7380490;19;20049;-50
2022/11/22 06:22:27;;;;;;;634.78;557.65;;;;;;;-0.92;100.00;97015.38;7384355;19;20018;-55
2022/11/22 06:25:01;;;;;;;717.92;573.00;;;;;;;-0.96;100.00;97016.38;7383866;19;20026;-49
2022/11/22 06:27:35;;;;;;;569.22;507.52;;;;;;;-0.82;100.00;97014.16;7385735;19;20102;-49
2022/11/22 06:30:09;;;;;;;565.10;504.17;;;;;;;-0.88;100.00;97016.09;7387919;19;20007;-54
2022/11/22 06:32:43;;;;;;;583.03;521.50;;;;;;;-0.92;100.00;97007.63;7380696;19;20014;-53
2022/11/22 06:35:16;;;;;;;562.97;501.90;;;;;;;-0.83;100.00;97007.28;7384797;19;20029;-55
2022/11/22 06:37:54;;;;;;;539.35;481.15;;;;;;;-0.85;100.00;97003.94;7386374;19;20035;-53
2022/11/22 06:40:28;;;;;;;507.05;454.38;;;;;;;-0.88;100.00;97014.38;7388915;19;20002;-59
2022/11/22 06:43:05;;;;;;;445.65;400.33;;;;;;;-0.97;100.00;97019.81;7387377;19;20010;-50
2022/11/22 06:45:39;;;;;;;448.02;402.92;;;;;;;-0.97;100.00;97008.69;7381538;19;20041;-52
2022/11/22 06:48:12;;;;;;;432.70;389.48;;;;;;;-0.94;100.00;97008.56;7385222;19;20014;-50
2022/11/22 06:50:47;;;;;;;430.58;387.05;;;;;;;-0.94;100.00;97014.56;7383329;19;20018;-66
2022/11/22 06:53:26;;;;;;;440.08;396.15;;;;;;;-0.96;100.00;97011.22;7386268;19;20079;-52
2022/11/22 06:56:06;;;;;;;414.42;372.17;;;;;;;-0.74;100.00;97022.47;7387395;19;20015;-51
2022/11/22 06:58:41;;;;;;;436.27;392.83;;;;;;;-0.89;100.00;97011.84;7384432;19;20499;-50
2022/11/22 07:01:16;;;;;;;440.48;396.65;;;;;;;-0.92;100.00;97010.22;7386356;19;20015;-49
2022/11/22 07:03:54;;;;;;;459.25;413.35;;;;;;;-0.93;100.00;97011.09;7383493;19;20018;-50
2022/11/22 07:06:31;;;;;;;459.73;414.58;;;;;;;-0.92;100.00;97011.94;7387174;19;20021;-51
2022/11/22 07:09:09;;;;;;;471.90;425.15;;;;;;;-1.03;100.00;97003.72;7380262;19;20010;-50
2022/11/22 07:11:42;;;;;;;452.02;406.88;;;;;;;-0.92;100.00;97006.78;7385574;19;20374;-54
2022/11/22 07:14:16;;;;;;;447.30;402.17;;;;;;;-0.96;100.00;97007.78;7383543;19;20029;-56
2022/11/22 07:16:50;;;;;;;457.17;411.77;;;;;;;-0.98;100.00;97012.97;7383231;19;20010;-51
2022/11/22 07:19:23;;;;;;;459.70;414.40;;;;;;;-0.96;100.00;97020.66;7385647;19;20086;-53
2022/11/22 07:21:57;;;;;;;470.52;423.83;;;;;;;-0.89;100.00;97033.34;7381459;19;20031;-54
2022/11/22 07:24:33;;;;;;;476.00;429.30;;;;;;;-0.87;100.00;97028.94;7387562;19;20031;-54
2022/11/22 07:27:07;;;;;;;457.23;411.33;;;;;;;-0.78;100.00;97045.84;7378667;19;20033;-66
2022/11/22 07:29:40;;;;;;;437.63;393.88;;;;;;;-0.81;100.00;97049.38;7383049;19;20022;-56
2022/11/22 07:32:14;;;;;;;447.40;402.85;;;;;;;-0.77;100.00;97044.94;7378716;19;20011;-53
2022/11/22 07:34:47;;;;;;;437.83;392.92;;;;;;;-0.77;100.00;97038.06;7376371;19;20015;-59
2022/11/22 07:37:21;;;;;;;468.90;423.00;;;;;;;-0.78;100.00;97041.53;7385414;19;20018;-56
2022/11/22 07:39:57;;;;;;;455.42;410.20;;;;;;;-0.70;100.00;97038.69;7391534;19;20481;-55
2022/11/22 07:42:31;;;;;;;459.40;413.48;;;;;;;-0.75;100.00;97040.59;7392104;19;20010;-51
2022/11/22 07:45:07;;;;;;;465.15;419.02;;;;;;;-0.76;100.00;97038.91;7395563;19;20018;-52
2022/11/22 07:47:41;;;;;;;457.15;410.70;;;;;;;-0.63;100.00;97040.16;7388456;19;20525;-54
2022/11/22 07:50:16;;;;;;;446.63;400.63;;;;;;;-0.68;100.00;97042.91;7390745;19;20021;-50
2022/11/22 07:52:49;;;;;;;456.13;410.05;;;;;;;-0.72;100.00;97033.56;7388091;19;20038;-60
2022/11/22 07:55:25;;;;;;;455.35;409.83;;;;;;;-0.56;100.00;97033.91;7394604;19;20021;-54
2022/11/22 07:57:59;;;;;;;430.83;386.95;;;;;;;-0.62;100.00;97040.13;7390086;19;20013;-54
2022/11/22 08:00:34;;;;;;;422.63;378.45;;;;;;;-0.51;100.00;97035.41;7388666;19;20035;-52
2022/11/22 08:03:08;;;;;;;455.27;410.65;;;;;;;-0.70;100.00;97042.13;7392809;19;20311;-53
2022/11/22 08:05:42;;;;;;;465.23;418.63;;;;;;;-0.68;100.00;97042.91;7385295;19;20488;-53
2022/11/22 08:08:15;;;;;;;433.15;388.65;;;;;;;-0.84;100.00;97036.59;7391289;19;20011;-54
2022/11/22 08:10:53;;;;;;;441.05;396.55;;;;;;;-0.76;100.00;97038.91;7393219;19;20007;-63
2022/11/22 08:13:29;;;;;;;550.30;490.55;;;;;;;-0.70;100.00;97036.09;7391558;19;20553;-53
2022/11/22 08:16:09;;;;;;;567.70;506.10;;;;;;;-0.74;100.00;97040.53;7390052;19;20014;-51
2022/11/22 08:18:52;;;;;;;570.42;508.05;;;;;;;-0.94;100.00;97040.38;7387593;19;20128;-54
2022/11/22 08:21:26;;;;;;;566.67;503.98;;;;;;;-0.77;100.00;97053.56;7391853;19;20021;-54
2022/11/22 08:24:04;;;;;;;581.72;517.33;;;;;;;-0.61;100.00;97057.28;7386671;19;20011;-54
2022/11/22 08:26:42;;;;;;;564.95;497.48;;;;;;;-0.73;100.00;97057.72;7391288;19;20335;-52
2022/11/22 08:29:18;;;;;;;568.85;501.48;;;;;;;-0.59;100.00;97058.09;7384735;19;20033;-50
2022/11/22 08:31:51;;;;;;;555.55;494.55;;;;;;;-0.67;100.00;97059.25;7392684;19;20027;-50
2022/11/22 08:34:25;;;;;;;554.35;493.73;;;;;;;-0.54;100.00;97063.09;7388888;19;20102;-56
2022/11/22 08:36:58;;;;;;;546.13;486.88;;;;;;;-0.59;100.00;97065.84;7391469;19;20011;-51
2022/11/22 08:39:33;;;;;;;515.80;463.20;;;;;;;-0.47;100.00;97055.06;7391493;19;20014;-49
2022/11/22 08:42:10;;;;;;;478.30;428.48;;;;;;;-0.60;100.00;97055.56;7381464;19;20114;-53
2022/11/22 08:44:44;;;;;;;448.02;403.70;;;;;;;-0.63;100.00;97064.25;7390877;19;20014;-52
2022/11/22 08:47:21;;;;;;;467.45;421.88;;;;;;;-0.48;100.00;97070.59;7382639;19;20470;-59
2022/11/22 08:49:55;;;;;;;448.13;404.45;;;;;;;-0.40;100.00;97068.59;7386808;19;20011;-50
2022/11/22 08:52:32;;;;;;;434.50;392.92;;;;;;;-0.33;100.00;97073.50;7387848;19;20002;-51
2022/11/22 08:55:05;;;;;;;434.88;393.13;;;;;;;-0.49;100.00;97068.94;7388869;19;20027;-49
2022/11/22 08:57:42;;;;;;;470.65;426.23;;;;;;;-0.10;100.00;97070.06;7387436;19;20010;-49
2022/11/22 09:00:17;;;;;;;440.50;397.42;;;;;;;-0.42;100.00;97063.47;7384628;19;20025;-48
2022/11/22 09:02:51;;;;;;;442.70;399.65;;;;;;;-0.41;100.00;97072.94;7389182;19;20006;-48
2022/11/22 09:05:28;;;;;;;453.35;409.15;;;;;;;-0.42;100.00;97073.00;7386560;19;19998;-64
2022/11/22 09:08:02;;;;;;;447.77;403.75;;;;;;;-0.47;100.00;97073.13;7387803;19;20018;-55
2022/11/22 09:10:36;;;;;;;419.70;378.85;;;;;;;-0.56;100.00;97063.16;7390389;19;20006;-55
2022/11/22 09:13:12;;;;;;;426.77;383.98;;;;;;;-0.48;100.00;97066.28;7385529;19;20011;-49
2022/11/22 09:15:45;;;;;;;418.38;377.75;;;;;;;-0.38;100.00;97059.88;7387398;19;20010;-49
2022/11/22 09:18:19;;;;;;;428.98;386.80;;;;;;;-0.52;100.00;97062.13;7384586;19;20038;-62
2022/11/22 09:20:52;;;;;;;459.33;415.17;;;;;;;-0.15;100.00;97061.66;7389232;19;20017;-52
2022/11/22 09:23:26;;;;;;;453.35;409.80;;;;;;;-0.53;100.00;97057.84;7389632;19;20037;-50
2022/11/22 09:26:03;;;;;;;436.85;392.23;;;;;;;-0.50;100.00;97057.75;7384535;19;20018;-49
2022/11/22 09:28:40;;;;;;;424.90;382.27;;;;;;;-0.42;100.00;97058.31;7389810;19;20006;-51
2022/11/22 09:31:15;;;;;;;;;;;;;;;-0.47;100.00;97057.66;7385797;19;20017;-49
2022/11/22 09:33:50;;;;;;;421.40;379.65;;;;;;;-0.44;100.00;97052.38;7391374;19;19919;-49
2022/11/22 09:36:26;;;;;;;440.27;396.92;;;;;;;-0.61;100.00;97053.88;7390490;19;20474;-56
2022/11/22 09:39:00;;;;;;;418.75;377.52;;;;;;;-0.57;100.00;97061.44;7388379;19;20006;-50
2022/11/22 09:42:04;;;;;;;439.52;396.60;;;;;;;-0.61;100.00;97049.53;7387294;19;20038;-49
2022/11/22 09:44:50;;;;;;;464.15;419.77;;;;;;;-0.65;100.00;97050.53;7386248;19;20014;-51
2022/11/22 09:47:33;;;;;;;448.08;403.73;;;;;;;-0.53;100.00;97052.69;7380568;19;20011;-52
2022/11/22 09:50:19;;;;;;;442.58;398.77;;;;;;;-0.46;100.00;97051.56;7385163;19;20009;-51
2022/11/22 09:53:00;;;;;;;426.58;383.42;;;;;;;-0.57;100.00;97056.28;7385729;19;20006;-50
2022/11/22 09:55:40;;;;;;;419.38;375.45;;;;;;;-0.26;100.00;97048.28;7385600;19;20333;-51
2022/11/22 09:58:32;;;;;;;438.00;393.50;;;;;;;-0.09;100.00;97044.19;7384973;19;20018;-51
2022/11/22 10:01:18;;;;;;;448.55;403.35;;;;;;;-0.07;100.00;97037.25;7379515;19;20018;-51
2022/11/22 10:03:56;;;;;;;431.63;388.65;;;;;;;-0.20;100.00;97043.75;7386092;19;20436;-49
2022/11/22 10:06:35;;;;;;;437.40;392.70;;;;;;;-0.26;100.00;97041.41;7379508;19;20003;-49
2022/11/22 10:09:26;;;;;;;440.88;396.05;;;;;;;-0.57;100.00;97048.53;7385269;19;20074;-51
2022/11/22 10:12:10;;;;;;;457.15;411.13;;;;;;;-0.37;100.00;97047.84;7384779;19;20359;-51
2022/11/22 10:14:52;;;;;;;441.65;396.88;;;;;;;-0.50;100.00;97049.19;7386221;19;20099;-49
2022/11/22 10:17:49;;;;;;;452.75;407.63;;;;;;;-0.43;100.00;97054.06;7384378;19;20015;-52
2022/11/22 10:20:24;;;;;;;447.08;402.27;;;;;;;-0.51;100.00;97048.31;7376215;19;20503;-54
2022/11/22 10:22:58;;;;;;;448.83;404.63;;;;;;;-0.49;100.00;97043.94;7388723;19;20469;-50
2022/11/22 10:25:41;;;;;;;441.73;397.50;;;;;;;-0.42;100.00;97042.00;7387655;19;20006;-50
2022/11/22 10:28:22;;;;;;;448.60;404.95;;;;;;;-0.42;100.00;97047.16;7388225;19;20015;-49
2022/11/22 10:31:12;;;;;;;449.52;404.88;;;;;;;-0.45;100.00;97042.97;7388174;19;20014;-52
2022/11/22 10:33:56;;;;;;;435.40;391.63;;;;;;;-0.42;100.00;97048.00;7388948;19;20469;-49
2022/11/22 10:36:39;;;;;;;461.55;415.88;;;;;;;-0.40;100.00;97046.22;7383781;19;20006;-49
2022/11/22 10:39:30;;;;;;;443.75;398.95;;;;;;;-0.43;100.00;97037.72;7383375;19;20015;-49
2022/11/22 10:42:22;;;;;;;444.40;400.23;;;;;;;-0.13;100.00;97041.78;7383912;19;20026;-53
2022/11/22 10:45:03;;;;;;;459.63;414.10;;;;;;;-0.34;100.00;97040.84;7382335;19;20014;-52
2022/11/22 10:48:04;;;;;;;454.63;409.77;;;;;;;-0.35;100.00;97043.47;7386579;19;20006;-50
2022/11/22 10:50:54;;;;;;;428.83;385.52;;;;;;;-0.58;100.00;97043.41;7385971;19;20018;-53
2022/11/22 10:53:35;;;;;;;454.25;409.33;;;;;;;-0.67;100.00;97043.75;7382013;19;20469;-50
2022/11/22 10:56:16;;;;;;;460.95;415.90;;;;;;;-0.58;100.00;97046.00;7385917;19;20051;-50
2022/11/22 10:59:06;;;;;;;456.75;411.45;;;;;;;-0.57;100.00;97040.78;7378434;19;20030;-49
2022/11/22 11:01:50;;;;;;;435.08;390.88;;;;;;;-0.51;100.00;97040.59;7388323;19;20023;-49
2022/11/22 11:04:30;;;;;;;453.27;407.87;;;;;;;-0.45;100.00;97035.22;7385644;19;20579;-49
2022/11/22 11:07:08;;;;;;;433.20;389.13;;;;;;;-0.39;100.00;97037.56;7386677;19;20603;-50
2022/11/22 11:09:46;;;;;;;454.55;409.52;;;;;;;-0.45;100.00;97035.22;7380400;19;20010;-49
2022/11/22 11:12:25;;;;;;;439.45;395.88;;;;;;;-0.48;100.00;97040.47;7383677;19;20470;-50
2022/11/22 11:15:02;;;;;;;442.10;397.83;;;;;;;-0.42;100.00;97040.25;7381946;19;20019;-50
2022/11/22 11:17:38;;;;;;;449.77;406.15;;;;;;;-0.31;100.00;97021.81;7387160;19;20015;-50
2022/11/22 11:20:22;;;;;;;444.95;400.50;;;;;;;-0.36;100.00;97024.53;7383686;19;20015;-57
2022/11/22 11:22:58;;;;;;;440.30;397.45;;;;;;;-0.20;100.00;97023.06;7387704;19;20306;-48
2022/11/22 11:25:39;;;;;;;446.42;402.15;;;;;;;-0.15;100.00;97018.59;7383359;19;20033;-54
2022/11/22 11:28:17;;;;;;;444.85;400.55;;;;;;;-0.59;100.00;97016.78;7386347;19;20018;-49
2022/11/22 11:30:53;;;;;;;434.17;391.42;;;;;;;-0.49;100.00;97014.72;7385580;19;20010;-64
2022/11/22 11:33:31;;;;;;;438.25;395.83;;;;;;;-0.50;100.00;97021.59;7384707;19;20014;-54
2022/11/22 11:36:12;;;;;;;434.20;392.20;;;;;;;-0.38;100.00;97004.84;7385295;19;20763;-47
2022/11/22 11:38:59;;;;;;;455.27;411.25;;;;;;;-0.53;100.00;97011.38;7384677;19;20032;-48
2022/11/22 11:41:36;;;;;;;452.50;408.52;;;;;;;-0.54;100.00;97020.03;7383061;19;20034;-51
2022/11/22 11:44:11;;;;;;;487.35;442.10;;;;;;;-0.61;100.00;97017.75;7387386;19;20462;-49
2022/11/22 11:46:53;;;;;;;490.45;443.67;;;;;;;-0.38;100.00;97010.81;7384773;19;20487;-49
2022/11/22 11:49:32;;;;;;;492.73;446.10;;;;;;;-0.32;100.00;97009.75;7387180;19;20014;-48